createdAt,value
2017-10-29T00:02:04.371Z,3.27
2017-10-29T00:04:06.068Z,2.90
2017-10-29T00:06:09.964Z,3.60
2017-10-29T00:08:10.990Z,3.90
2017-10-29T00:12:51.334Z,3.30
2017-10-29T00:14:52.518Z,3.37
2017-10-29T00:22:21.910Z,3.40
2017-10-29T00:24:41.644Z,3.10
2017-10-29T00:29:25.592Z,4.30
2017-10-29T00:31:26.709Z,4.70
2017-10-29T00:33:31.756Z,3.73
2017-10-29T00:35:45.547Z,4.23
2017-10-29T00:37:47.174Z,3.50
2017-10-29T00:40:12.556Z,4.00
2017-10-29T00:44:41.168Z,3.10
2017-10-29T00:46:43.865Z,3.60
2017-10-29T00:48:48.632Z,3.90
2017-10-29T00:50:52.006Z,3.03
2017-10-29T00:57:42.068Z,3.77
2017-10-29T01:02:20.099Z,3.20
2017-10-29T01:04:21.321Z,2.90
2017-10-29T01:06:25.320Z,3.30
2017-10-29T01:11:11.612Z,4.67
2017-10-29T01:18:17.289Z,3.80
2017-10-29T01:20:37.580Z,4.40
2017-10-29T01:27:36.777Z,3.13
2017-10-29T01:29:38.826Z,4.10
2017-10-29T01:31:43.001Z,3.40
2017-10-29T01:36:13.133Z,4.07
2017-10-29T01:38:29.334Z,3.73
2017-10-29T01:48:08.932Z,3.30
2017-10-29T01:50:13.639Z,3.13
2017-10-29T01:52:14.799Z,2.87
2017-10-29T01:54:15.959Z,3.37
2017-10-29T01:58:53.817Z,3.37
2017-10-29T02:01:00.172Z,3.30
2017-10-29T02:03:06.397Z,3.50
2017-10-29T02:05:22.061Z,3.33
2017-10-29T02:07:23.608Z,3.37
2017-10-29T02:09:25.000Z,3.50
2017-10-29T02:11:26.064Z,4.17
2017-10-29T02:13:28.025Z,3.30
2017-10-29T02:15:29.539Z,3.37
2017-10-29T02:17:31.792Z,3.77
2017-10-29T02:24:12.468Z,2.70
2017-10-29T02:26:16.270Z,3.20
2017-10-29T02:28:34.022Z,2.70
2017-10-29T02:35:44.669Z,3.50
2017-10-29T02:37:46.913Z,3.17
2017-10-29T02:42:26.989Z,3.20
2017-10-29T02:44:29.111Z,2.67
2017-10-29T02:46:33.471Z,2.87
2017-10-29T02:51:05.906Z,3.40
2017-10-29T02:53:09.666Z,3.77
2017-10-29T02:58:14.075Z,3.40
2017-10-29T03:00:15.725Z,4.10
2017-10-29T03:07:07.394Z,3.50
2017-10-29T03:11:42.273Z,5.50
2017-10-29T03:14:08.948Z,3.90
2017-10-29T03:16:13.570Z,3.30
2017-10-29T03:18:14.851Z,4.47
2017-10-29T03:22:39.369Z,4.27
2017-10-29T03:27:08.973Z,5.50
2017-10-29T03:29:10.636Z,4.97
2017-10-29T05:11:47.453Z,7.27
2017-10-29T05:14:07.713Z,6.97
2017-10-29T05:16:13.298Z,5.77
2017-10-29T05:23:05.141Z,7.50
2017-10-29T05:52:13.061Z,7.00
2017-10-29T05:54:19.024Z,6.67
2017-10-29T05:56:22.284Z,7.27
2017-10-29T05:58:23.716Z,7.50
2017-10-29T06:02:43.971Z,8.23
2017-10-29T06:04:50.309Z,7.43
2017-10-29T06:06:51.453Z,7.90
2017-10-29T06:09:02.111Z,6.30
2017-10-29T06:11:04.127Z,6.93
2017-10-29T06:20:37.007Z,7.03
2017-10-29T06:27:03.066Z,5.87
2017-10-29T06:31:36.740Z,5.67
2017-10-29T06:33:41.659Z,5.83
2017-10-29T06:38:13.925Z,7.57
2017-10-29T06:57:34.255Z,5.97
2017-10-29T07:11:43.653Z,6.47
2017-10-29T07:22:04.113Z,7.70
2017-10-29T07:26:23.494Z,7.30
2017-10-29T07:28:41.952Z,7.63
2017-10-29T07:30:44.684Z,6.57
2017-10-29T07:32:54.441Z,7.33
2017-10-29T07:34:57.223Z,6.90
2017-10-29T07:37:02.491Z,8.53
2017-10-29T07:41:16.830Z,6.50
2017-10-29T07:45:44.144Z,8.43
2017-10-29T07:50:02.873Z,7.87
2017-10-29T07:52:05.956Z,6.33
2017-10-29T07:54:11.060Z,6.13
2017-10-29T07:56:16.453Z,6.53
2017-10-29T08:00:55.145Z,7.27
2017-10-29T08:03:13.117Z,7.00
2017-10-29T08:05:26.008Z,6.37
2017-10-29T08:09:46.160Z,6.87
2017-10-29T08:11:53.773Z,6.33
2017-10-29T08:14:01.275Z,7.30
2017-10-29T08:16:07.897Z,8.57
2017-10-29T08:18:09.626Z,7.93
2017-10-29T08:20:12.693Z,8.17
2017-10-29T08:22:17.069Z,9.80
2017-10-29T08:24:20.080Z,6.27
2017-10-29T08:28:55.863Z,7.13
2017-10-29T08:30:58.365Z,8.37
2017-10-29T08:33:00.605Z,7.80
2017-10-29T08:35:01.801Z,7.27
2017-10-29T08:37:02.911Z,8.00
2017-10-29T08:39:06.105Z,6.27
2017-10-29T08:41:10.247Z,7.20
2017-10-29T08:43:11.775Z,10.13
2017-10-29T08:45:13.151Z,7.40
2017-10-29T08:47:14.275Z,7.30
2017-10-29T08:49:19.405Z,6.53
2017-10-29T08:51:23.215Z,6.57
2017-10-29T08:53:24.898Z,6.77
2017-10-29T08:55:26.929Z,6.70
2017-10-29T08:57:36.019Z,6.07
2017-10-29T08:59:38.094Z,5.20
2017-10-29T09:01:39.807Z,6.80
2017-10-29T09:03:43.793Z,3.90
2017-10-29T09:05:45.246Z,5.07
2017-10-29T09:07:46.937Z,5.80
2017-10-29T09:09:48.920Z,5.57
2017-10-29T09:11:52.873Z,5.43
2017-10-29T09:13:53.976Z,6.17
2017-10-29T09:15:55.211Z,4.70
2017-10-29T09:17:56.245Z,5.70
2017-10-29T09:19:57.291Z,6.27
2017-10-29T09:21:59.680Z,6.00
2017-10-29T09:24:00.677Z,6.30
2017-10-29T09:28:39.162Z,5.93
2017-10-29T09:30:40.217Z,6.60
2017-10-29T09:32:41.654Z,7.07
2017-10-29T09:34:42.622Z,6.53
2017-10-29T09:39:23.382Z,6.60
2017-10-29T09:41:24.516Z,6.60
2017-10-29T09:43:26.655Z,8.13
2017-10-29T09:45:28.105Z,8.00
2017-10-29T09:47:29.263Z,7.10
2017-10-29T09:49:35.354Z,6.40
2017-10-29T09:51:37.132Z,6.03
2017-10-29T09:53:38.639Z,7.93
2017-10-29T09:55:43.338Z,15.30
2017-10-29T09:57:44.588Z,11.77
2017-10-29T09:59:46.290Z,6.20
2017-10-29T10:02:03.351Z,7.37
2017-10-29T10:04:12.605Z,7.10
2017-10-29T10:11:38.033Z,4.80
2017-10-29T10:13:40.184Z,5.93
2017-10-29T10:20:58.265Z,5.33
2017-10-29T10:23:04.660Z,5.00
2017-10-29T10:25:36.376Z,5.67
2017-10-29T10:27:37.771Z,4.70
2017-10-29T10:29:42.809Z,5.57
2017-10-29T10:33:59.481Z,5.33
2017-10-29T10:36:01.282Z,5.90
2017-10-29T10:38:03.275Z,6.33
2017-10-29T10:40:04.557Z,6.37
2017-10-29T10:44:30.205Z,6.00
2017-10-29T10:46:32.729Z,5.90
2017-10-29T10:53:41.124Z,5.40
2017-10-29T10:55:42.317Z,5.60
2017-10-29T10:57:44.669Z,5.53
2017-10-29T10:59:48.637Z,5.67
2017-10-29T11:01:52.778Z,5.10
2017-10-29T11:06:07.060Z,5.40
2017-10-29T11:10:47.367Z,5.80
2017-10-29T11:20:19.123Z,6.07
2017-10-29T11:24:42.350Z,6.00
2017-10-29T11:26:49.021Z,4.83
2017-10-29T11:31:18.354Z,5.87
2017-10-29T11:36:09.169Z,5.60
2017-10-29T11:42:36.920Z,5.50
2017-10-29T11:44:38.473Z,5.80
2017-10-29T11:49:06.100Z,6.40
2017-10-29T11:51:10.829Z,5.90
2017-10-29T11:53:38.721Z,5.90
2017-10-29T11:55:41.098Z,5.87
2017-10-29T11:57:43.149Z,4.23
2017-10-29T12:02:09.393Z,4.20
2017-10-29T12:04:32.255Z,4.67
2017-10-29T12:06:53.390Z,5.33
2017-10-29T12:09:35.662Z,5.90
2017-10-29T12:11:36.895Z,4.97
2017-10-29T12:13:39.544Z,5.10
2017-10-29T12:18:10.495Z,5.37
2017-10-29T12:22:35.154Z,6.67
2017-10-29T12:24:38.622Z,5.07
2017-10-29T12:26:42.299Z,5.17
2017-10-29T12:28:44.927Z,5.63
2017-10-29T12:33:12.884Z,4.40
2017-10-29T12:35:36.471Z,3.60
2017-10-29T12:37:38.015Z,4.83
2017-10-29T12:39:44.664Z,4.50
2017-10-29T12:41:50.180Z,5.13
2017-10-29T12:46:28.023Z,4.93
2017-10-29T12:48:37.026Z,4.63
2017-10-29T12:50:38.224Z,3.53
2017-10-29T12:52:39.457Z,5.50
2017-10-29T12:54:40.868Z,4.30
2017-10-29T12:56:42.155Z,3.87
2017-10-29T12:58:43.468Z,4.33
2017-10-29T13:00:52.453Z,4.60
2017-10-29T13:02:54.343Z,4.50
2017-10-29T13:04:59.748Z,3.90
2017-10-29T13:07:16.782Z,3.70
2017-10-29T13:09:19.238Z,4.47
2017-10-29T13:11:21.119Z,4.40
2017-10-29T13:18:18.538Z,4.27
2017-10-29T13:24:54.796Z,4.63
2017-10-29T13:26:55.835Z,5.50
2017-10-29T13:31:35.010Z,5.00
2017-10-29T13:44:05.982Z,4.80
2017-10-29T13:56:42.556Z,6.30
2017-10-29T14:01:26.768Z,4.30
2017-10-29T14:03:35.869Z,4.73
2017-10-29T14:07:46.492Z,4.63
2017-10-29T14:09:56.006Z,4.20
2017-10-29T14:11:57.664Z,3.40
2017-10-29T14:16:36.705Z,5.10
2017-10-29T14:21:18.573Z,4.17
2017-10-29T14:26:07.982Z,4.63
2017-10-29T14:30:37.804Z,3.73
2017-10-29T14:41:28.323Z,3.90
2017-10-29T14:43:37.035Z,3.87
2017-10-29T14:45:39.380Z,4.32
2017-10-29T14:47:40.697Z,4.70
2017-10-29T14:54:52.354Z,3.60
2017-10-29T14:56:53.686Z,3.90
2017-10-29T14:58:56.445Z,4.00
2017-10-29T15:00:58.183Z,3.70
2017-10-29T15:02:59.512Z,4.30
2017-10-29T15:05:07.363Z,3.93
2017-10-29T15:07:09.136Z,3.77
2017-10-29T15:11:48.721Z,4.27
2017-10-29T15:13:51.538Z,5.23
2017-10-29T15:15:52.676Z,3.90
2017-10-29T15:23:09.100Z,4.20
2017-10-29T15:30:35.860Z,4.43
2017-10-29T15:32:42.248Z,3.70
2017-10-29T15:34:44.029Z,3.60
2017-10-29T15:36:45.387Z,4.40
2017-10-29T15:41:24.940Z,5.00
2017-10-29T15:43:28.817Z,4.33
2017-10-29T15:47:57.960Z,5.20
2017-10-29T15:52:37.017Z,5.53
2017-10-29T15:54:38.593Z,5.90
2017-10-29T15:57:06.859Z,5.87
2017-10-29T16:19:22.679Z,6.40
2017-10-29T16:21:24.255Z,4.80
2017-10-29T16:23:27.015Z,5.50
2017-10-29T16:25:30.756Z,5.47
2017-10-29T16:27:32.200Z,5.40
2017-10-29T16:29:34.577Z,4.93
2017-10-29T16:34:03.246Z,5.93
2017-10-29T16:36:04.701Z,5.70
2017-10-29T16:40:36.495Z,5.10
2017-10-29T16:49:59.097Z,6.10
2017-10-29T17:05:05.625Z,5.63
2017-10-29T17:07:07.860Z,5.77
2017-10-29T17:11:47.300Z,5.60
2017-10-29T17:13:50.256Z,5.30
2017-10-29T17:15:51.528Z,5.43
2017-10-29T17:17:53.530Z,4.93
2017-10-29T17:20:19.306Z,5.10
2017-10-29T17:22:26.890Z,5.63
2017-10-29T17:26:42.825Z,5.03
2017-10-29T17:28:49.564Z,5.67
2017-10-29T17:30:51.241Z,6.10
2017-10-29T17:32:52.382Z,5.70
2017-10-29T17:34:53.605Z,5.37
2017-10-29T17:36:55.355Z,5.50
2017-10-29T17:38:57.382Z,5.43
2017-10-29T17:41:02.679Z,5.20
2017-10-29T17:43:04.416Z,5.53
2017-10-29T17:50:15.809Z,5.20
2017-10-29T17:52:35.875Z,6.33
2017-10-29T17:54:47.609Z,5.97
2017-10-29T17:56:51.905Z,6.00
2017-10-29T17:59:04.988Z,5.77
2017-10-29T18:01:06.236Z,5.40
2017-10-29T18:03:11.564Z,5.30
2017-10-29T18:05:13.865Z,6.37
2017-10-29T18:12:22.744Z,4.50
2017-10-29T18:14:23.779Z,6.00
2017-10-29T19:06:50.654Z,6.30
2017-10-29T19:14:27.293Z,6.87
2017-10-29T19:16:28.457Z,5.47
2017-10-29T19:23:55.444Z,5.10
2017-10-29T19:39:09.906Z,6.07
2017-10-29T19:41:12.532Z,6.23
2017-10-29T19:43:13.919Z,5.40
2017-10-29T19:45:15.130Z,6.33
2017-10-29T19:47:16.404Z,5.63
2017-10-29T19:49:35.661Z,6.00
2017-10-29T19:51:36.794Z,4.90
2017-10-29T19:56:05.769Z,6.50
2017-10-29T20:00:42.951Z,5.27
2017-10-29T20:02:49.883Z,5.23
2017-10-29T20:04:51.101Z,5.70
2017-10-29T20:06:54.671Z,4.67
2017-10-29T20:08:56.833Z,6.30
2017-10-29T20:10:58.992Z,4.90
2017-10-29T20:13:00.277Z,5.00
2017-10-29T20:15:01.555Z,4.90
2017-10-29T20:17:03.299Z,6.40
2017-10-29T20:21:50.661Z,5.97
2017-10-29T20:24:05.377Z,5.53
2017-10-29T20:26:14.042Z,6.83
2017-10-29T20:30:53.661Z,4.57
2017-10-29T20:32:55.158Z,4.60
2017-10-29T20:34:56.265Z,5.10
2017-10-29T20:37:14.565Z,4.20
2017-10-29T20:39:15.866Z,4.77
2017-10-29T20:41:37.783Z,4.63
2017-10-29T20:43:40.826Z,4.73
2017-10-29T20:45:59.704Z,4.13
2017-10-29T20:50:19.446Z,4.83
2017-10-29T21:01:52.308Z,4.73
2017-10-29T21:03:55.005Z,5.40
2017-10-29T21:05:59.704Z,5.13
2017-10-29T21:08:00.807Z,4.10
2017-10-29T21:15:05.184Z,4.87
2017-10-29T21:17:11.953Z,4.30
2017-10-29T21:24:36.212Z,5.10
2017-10-29T21:28:43.953Z,3.67
2017-10-29T21:30:45.114Z,4.50
2017-10-29T21:32:46.719Z,4.60
2017-10-29T21:34:47.747Z,3.73
2017-10-29T21:36:48.870Z,3.80
2017-10-29T21:38:49.988Z,4.20
2017-10-29T21:40:51.028Z,4.50
2017-10-29T21:45:02.622Z,4.30
2017-10-29T21:47:03.679Z,4.80
2017-10-29T21:49:06.043Z,4.70
2017-10-29T21:51:07.248Z,4.90
2017-10-29T21:53:08.513Z,5.23
2017-10-29T21:55:09.649Z,4.30
2017-10-29T21:57:10.669Z,5.20
2017-10-29T21:59:11.717Z,6.23
2017-10-29T22:01:12.871Z,4.77
2017-10-29T22:03:15.242Z,4.60
2017-10-29T22:05:16.387Z,3.63
2017-10-29T22:07:17.389Z,4.57
2017-10-29T22:09:23.280Z,4.20
2017-10-29T22:14:06.665Z,3.83
2017-10-29T22:16:09.129Z,4.70
2017-10-29T22:18:10.263Z,5.33
2017-10-29T22:20:11.430Z,4.47
2017-10-29T22:22:12.729Z,4.60
2017-10-29T22:24:13.747Z,4.70
2017-10-29T22:26:14.871Z,3.03
2017-10-29T22:28:16.042Z,4.00
2017-10-29T22:30:17.059Z,4.30
2017-10-29T22:32:18.639Z,4.10
2017-10-29T22:34:19.684Z,5.00
2017-10-29T22:36:23.511Z,3.67
2017-10-29T22:38:27.839Z,4.13
2017-10-29T22:40:30.857Z,5.10
2017-10-29T22:42:32.017Z,5.60
2017-10-29T22:46:46.297Z,4.00
2017-10-29T22:48:50.817Z,3.80
2017-10-29T22:50:52.170Z,3.60
2017-10-29T22:52:54.586Z,4.17
2017-10-29T22:54:55.723Z,3.70
2017-10-29T22:56:56.758Z,5.60
2017-10-29T22:58:58.673Z,4.10
2017-10-29T23:01:00.024Z,4.10
2017-10-29T23:03:01.142Z,4.03
2017-10-29T23:05:07.530Z,4.30
2017-10-29T23:07:15.922Z,4.90
2017-10-29T23:09:21.320Z,5.30
2017-10-29T23:11:22.601Z,4.77
2017-10-29T23:13:24.110Z,4.90
2017-10-29T23:15:25.329Z,4.50
2017-10-29T23:17:26.739Z,4.43
2017-10-29T23:19:27.991Z,4.30
2017-10-29T23:21:29.790Z,4.13
2017-10-29T23:23:30.827Z,4.40
2017-10-29T23:25:31.900Z,4.77
2017-10-29T23:27:33.939Z,3.60
2017-10-29T23:29:35.411Z,4.53
2017-10-29T23:31:36.913Z,5.03
2017-10-29T23:33:41.106Z,4.67
2017-10-29T23:35:42.214Z,4.37
2017-10-29T23:37:43.263Z,5.90
2017-10-29T23:39:45.211Z,5.17
2017-10-29T23:41:49.116Z,4.87
2017-10-29T23:43:50.242Z,4.80
2017-10-29T23:45:51.371Z,4.97
2017-10-29T23:47:55.933Z,3.83
2017-10-29T23:50:01.654Z,4.40
2017-10-29T23:52:03.429Z,4.90
2017-10-29T23:54:04.573Z,5.27
2017-10-29T23:56:05.786Z,4.07
2017-10-29T23:58:07.022Z,3.57
